<?xml version="1.0" encoding="UTF-8" standalone="no" ?>
<gpx xmlns="http://www.topografix.com/GPX/1/1" xmlns:xsi="http://www.w3.org/2001/XMLSchema-instance" xsi:schemaLocation="http://www.topografix.com/GPX/1/1 http://www.topografix.com/GPX/1/1/gpx.xsd" version="1.1" creator="VisuGPX - https://www.visugpx.com">
  <metadata>
    <name>46 - Porte-du-Quercy : boucles au départ du Domaine des Terres Blanches</name>
    <desc><![CDATA[Cet itinéraire fait partie de la collection de EquiLiberté : www.equiliberte.org Circuit NON ACCESSIBLE aux attelages
Ces circuits ont été élaborés par le gîte équestre Domaine des Terres Blanches https://domainedesterresblanches.com/]]></desc>
  </metadata>
  <wpt lat="44.41706" lon="1.15834">
    <ele>172</ele>
    <name><![CDATA[Domaine des Terres Blanches]]></name>
    <type><![CDATA[hotel]]></type>
  </wpt>
  <trk>
    <name><![CDATA[Les Terres blanches boucle ouest 30 km]]></name>
    <trkseg>
      <trkpt lat="44.4168" lon="1.15863">
        <ele>174</ele>
        <time>2021-01-20T18:25:30Z</time>
      </trkpt>
      <trkpt lat="44.41639" lon="1.15647">
        <ele>180</ele>
        <time>2021-01-20T18:27:38Z</time>
      </trkpt>
      <trkpt lat="44.41583" lon="1.15417">
        <ele>190</ele>
        <time>2021-01-20T18:29:57Z</time>
      </trkpt>
      <trkpt lat="44.41754" lon="1.15289">
        <ele>168</ele>
        <time>2021-01-20T18:32:32Z</time>
      </trkpt>
      <trkpt lat="44.41869" lon="1.1508">
        <ele>158</ele>
        <time>2021-01-20T18:35:03Z</time>
      </trkpt>
      <trkpt lat="44.41934" lon="1.1501">
        <ele>154</ele>
        <time>2021-01-20T18:36:09Z</time>
      </trkpt>
      <trkpt lat="44.41958" lon="1.14834">
        <ele>155</ele>
        <time>2021-01-20T18:37:51Z</time>
      </trkpt>
      <trkpt lat="44.41982" lon="1.14728">
        <ele>153</ele>
        <time>2021-01-20T18:38:55Z</time>
      </trkpt>
      <trkpt lat="44.41927" lon="1.147">
        <ele>152</ele>
        <time>2021-01-20T18:39:42Z</time>
      </trkpt>
      <trkpt lat="44.41927" lon="1.14543">
        <ele>151</ele>
        <time>2021-01-20T18:41:11Z</time>
      </trkpt>
      <trkpt lat="44.4191" lon="1.14461">
        <ele>150</ele>
        <time>2021-01-20T18:42:00Z</time>
      </trkpt>
      <trkpt lat="44.41832" lon="1.14367">
        <ele>150</ele>
        <time>2021-01-20T18:43:23Z</time>
      </trkpt>
      <trkpt lat="44.41754" lon="1.14194">
        <ele>157</ele>
        <time>2021-01-20T18:45:20Z</time>
      </trkpt>
      <trkpt lat="44.41689" lon="1.14078">
        <ele>160</ele>
        <time>2021-01-20T18:46:44Z</time>
      </trkpt>
      <trkpt lat="44.41617" lon="1.13945">
        <ele>166</ele>
        <time>2021-01-20T18:48:19Z</time>
      </trkpt>
      <trkpt lat="44.41533" lon="1.13954">
        <ele>171</ele>
        <time>2021-01-20T18:49:27Z</time>
      </trkpt>
      <trkpt lat="44.41433" lon="1.13872">
        <ele>181</ele>
        <time>2021-01-20T18:51:00Z</time>
      </trkpt>
      <trkpt lat="44.41375" lon="1.13755">
        <ele>188</ele>
        <time>2021-01-20T18:52:21Z</time>
      </trkpt>
      <trkpt lat="44.41277" lon="1.13684">
        <ele>197</ele>
        <time>2021-01-20T18:53:49Z</time>
      </trkpt>
      <trkpt lat="44.4124" lon="1.13634">
        <ele>192</ele>
        <time>2021-01-20T18:54:30Z</time>
      </trkpt>
      <trkpt lat="44.41132" lon="1.13596">
        <ele>184</ele>
        <time>2021-01-20T18:56:00Z</time>
      </trkpt>
      <trkpt lat="44.40939" lon="1.13638">
        <ele>188</ele>
        <time>2021-01-20T18:58:36Z</time>
      </trkpt>
      <trkpt lat="44.40952" lon="1.13541">
        <ele>191</ele>
        <time>2021-01-20T18:59:32Z</time>
      </trkpt>
      <trkpt lat="44.4106" lon="1.13438">
        <ele>198</ele>
        <time>2021-01-20T19:01:17Z</time>
      </trkpt>
      <trkpt lat="44.41147" lon="1.1332">
        <ele>212</ele>
        <time>2021-01-20T19:02:54Z</time>
      </trkpt>
      <trkpt lat="44.41214" lon="1.13238">
        <ele>225</ele>
        <time>2021-01-20T19:04:05Z</time>
      </trkpt>
      <trkpt lat="44.41294" lon="1.13217">
        <ele>226</ele>
        <time>2021-01-20T19:05:11Z</time>
      </trkpt>
      <trkpt lat="44.41383" lon="1.13165">
        <ele>231</ele>
        <time>2021-01-20T19:06:28Z</time>
      </trkpt>
      <trkpt lat="44.41448" lon="1.13092">
        <ele>233</ele>
        <time>2021-01-20T19:07:34Z</time>
      </trkpt>
      <trkpt lat="44.41559" lon="1.1305">
        <ele>236</ele>
        <time>2021-01-20T19:09:07Z</time>
      </trkpt>
      <trkpt lat="44.4163" lon="1.13004">
        <ele>237</ele>
        <time>2021-01-20T19:10:09Z</time>
      </trkpt>
      <trkpt lat="44.41787" lon="1.13171">
        <ele>233</ele>
        <time>2021-01-20T19:12:47Z</time>
      </trkpt>
      <trkpt lat="44.41867" lon="1.1322">
        <ele>240</ele>
        <time>2021-01-20T19:13:57Z</time>
      </trkpt>
      <trkpt lat="44.41917" lon="1.13098">
        <ele>234</ele>
        <time>2021-01-20T19:15:17Z</time>
      </trkpt>
      <trkpt lat="44.41899" lon="1.1301">
        <ele>227</ele>
        <time>2021-01-20T19:16:10Z</time>
      </trkpt>
      <trkpt lat="44.41867" lon="1.12877">
        <ele>214</ele>
        <time>2021-01-20T19:17:30Z</time>
      </trkpt>
      <trkpt lat="44.41867" lon="1.12755">
        <ele>209</ele>
        <time>2021-01-20T19:18:40Z</time>
      </trkpt>
      <trkpt lat="44.41778" lon="1.12558">
        <ele>184</ele>
        <time>2021-01-20T19:20:53Z</time>
      </trkpt>
      <trkpt lat="44.41739" lon="1.12227">
        <ele>172</ele>
        <time>2021-01-20T19:24:05Z</time>
      </trkpt>
      <trkpt lat="44.41691" lon="1.11991">
        <ele>165</ele>
        <time>2021-01-20T19:26:25Z</time>
      </trkpt>
      <trkpt lat="44.41698" lon="1.11863">
        <ele>159</ele>
        <time>2021-01-20T19:27:39Z</time>
      </trkpt>
      <trkpt lat="44.41654" lon="1.11778">
        <ele>157</ele>
        <time>2021-01-20T19:28:39Z</time>
      </trkpt>
      <trkpt lat="44.41585" lon="1.11687">
        <ele>165</ele>
        <time>2021-01-20T19:29:55Z</time>
      </trkpt>
      <trkpt lat="44.41687" lon="1.11602">
        <ele>159</ele>
        <time>2021-01-20T19:31:30Z</time>
      </trkpt>
      <trkpt lat="44.41793" lon="1.11517">
        <ele>159</ele>
        <time>2021-01-20T19:33:07Z</time>
      </trkpt>
      <trkpt lat="44.41888" lon="1.11417">
        <ele>159</ele>
        <time>2021-01-20T19:34:43Z</time>
      </trkpt>
      <trkpt lat="44.41973" lon="1.11329">
        <ele>162</ele>
        <time>2021-01-20T19:36:07Z</time>
      </trkpt>
      <trkpt lat="44.42062" lon="1.11284">
        <ele>165</ele>
        <time>2021-01-20T19:37:23Z</time>
      </trkpt>
      <trkpt lat="44.42018" lon="1.1122">
        <ele>170</ele>
        <time>2021-01-20T19:38:14Z</time>
      </trkpt>
      <trkpt lat="44.41962" lon="1.11138">
        <ele>173</ele>
        <time>2021-01-20T19:39:19Z</time>
      </trkpt>
      <trkpt lat="44.41867" lon="1.11023">
        <ele>176</ele>
        <time>2021-01-20T19:40:59Z</time>
      </trkpt>
      <trkpt lat="44.41819" lon="1.10734">
        <ele>181</ele>
        <time>2021-01-20T19:43:49Z</time>
      </trkpt>
      <trkpt lat="44.41895" lon="1.10495">
        <ele>197</ele>
        <time>2021-01-20T19:46:19Z</time>
      </trkpt>
      <trkpt lat="44.4201" lon="1.10394">
        <ele>213</ele>
        <time>2021-01-20T19:48:07Z</time>
      </trkpt>
      <trkpt lat="44.4206" lon="1.10316">
        <ele>228</ele>
        <time>2021-01-20T19:49:07Z</time>
      </trkpt>
      <trkpt lat="44.4206" lon="1.10218">
        <ele>238</ele>
        <time>2021-01-20T19:50:03Z</time>
      </trkpt>
      <trkpt lat="44.42068" lon="1.10173">
        <ele>247</ele>
        <time>2021-01-20T19:50:30Z</time>
      </trkpt>
      <trkpt lat="44.42053" lon="1.10115">
        <ele>254</ele>
        <time>2021-01-20T19:51:05Z</time>
      </trkpt>
      <trkpt lat="44.42044" lon="1.10061">
        <ele>260</ele>
        <time>2021-01-20T19:51:37Z</time>
      </trkpt>
      <trkpt lat="44.4206" lon="1.10003">
        <ele>265</ele>
        <time>2021-01-20T19:52:12Z</time>
      </trkpt>
      <trkpt lat="44.42086" lon="1.09945">
        <ele>267</ele>
        <time>2021-01-20T19:52:51Z</time>
      </trkpt>
      <trkpt lat="44.42107" lon="1.09891">
        <ele>266</ele>
        <time>2021-01-20T19:53:27Z</time>
      </trkpt>
      <trkpt lat="44.42077" lon="1.09803">
        <ele>264</ele>
        <time>2021-01-20T19:54:22Z</time>
      </trkpt>
      <trkpt lat="44.42064" lon="1.09745">
        <ele>263</ele>
        <time>2021-01-20T19:54:57Z</time>
      </trkpt>
      <trkpt lat="44.42044" lon="1.09675">
        <ele>265</ele>
        <time>2021-01-20T19:55:40Z</time>
      </trkpt>
      <trkpt lat="44.42036" lon="1.09608">
        <ele>264</ele>
        <time>2021-01-20T19:56:19Z</time>
      </trkpt>
      <trkpt lat="44.42073" lon="1.09575">
        <ele>262</ele>
        <time>2021-01-20T19:56:54Z</time>
      </trkpt>
      <trkpt lat="44.42283" lon="1.0939">
        <ele>251</ele>
        <time>2021-01-20T20:00:13Z</time>
      </trkpt>
      <trkpt lat="44.42164" lon="1.09123">
        <ele>255</ele>
        <time>2021-01-20T20:03:13Z</time>
      </trkpt>
      <trkpt lat="44.42066" lon="1.08956">
        <ele>249</ele>
        <time>2021-01-20T20:05:16Z</time>
      </trkpt>
      <trkpt lat="44.4196" lon="1.08628">
        <ele>239</ele>
        <time>2021-01-20T20:08:42Z</time>
      </trkpt>
      <trkpt lat="44.41906" lon="1.08647">
        <ele>239</ele>
        <time>2021-01-20T20:09:27Z</time>
      </trkpt>
      <trkpt lat="44.41793" lon="1.08565">
        <ele>233</ele>
        <time>2021-01-20T20:11:09Z</time>
      </trkpt>
      <trkpt lat="44.41795" lon="1.08428">
        <ele>230</ele>
        <time>2021-01-20T20:12:27Z</time>
      </trkpt>
      <trkpt lat="44.41711" lon="1.08328">
        <ele>230</ele>
        <time>2021-01-20T20:13:56Z</time>
      </trkpt>
      <trkpt lat="44.41646" lon="1.08188">
        <ele>229</ele>
        <time>2021-01-20T20:15:31Z</time>
      </trkpt>
      <trkpt lat="44.41563" lon="1.07982">
        <ele>222</ele>
        <time>2021-01-20T20:17:46Z</time>
      </trkpt>
      <trkpt lat="44.41587" lon="1.0778">
        <ele>227</ele>
        <time>2021-01-20T20:19:43Z</time>
      </trkpt>
      <trkpt lat="44.41615" lon="1.07601">
        <ele>228</ele>
        <time>2021-01-20T20:21:28Z</time>
      </trkpt>
      <trkpt lat="44.41669" lon="1.07539">
        <ele>232</ele>
        <time>2021-01-20T20:22:24Z</time>
      </trkpt>
      <trkpt lat="44.41841" lon="1.07408">
        <ele>233</ele>
        <time>2021-01-20T20:25:01Z</time>
      </trkpt>
      <trkpt lat="44.41901" lon="1.07351">
        <ele>236</ele>
        <time>2021-01-20T20:25:59Z</time>
      </trkpt>
      <trkpt lat="44.41986" lon="1.07289">
        <ele>246</ele>
        <time>2021-01-20T20:27:16Z</time>
      </trkpt>
      <trkpt lat="44.42057" lon="1.07319">
        <ele>247</ele>
        <time>2021-01-20T20:28:15Z</time>
      </trkpt>
      <trkpt lat="44.42116" lon="1.07254">
        <ele>251</ele>
        <time>2021-01-20T20:29:15Z</time>
      </trkpt>
      <trkpt lat="44.42227" lon="1.07226">
        <ele>250</ele>
        <time>2021-01-20T20:30:45Z</time>
      </trkpt>
      <trkpt lat="44.42257" lon="1.07169">
        <ele>255</ele>
        <time>2021-01-20T20:31:26Z</time>
      </trkpt>
      <trkpt lat="44.42331" lon="1.07166">
        <ele>258</ele>
        <time>2021-01-20T20:32:25Z</time>
      </trkpt>
      <trkpt lat="44.42432" lon="1.07154">
        <ele>260</ele>
        <time>2021-01-20T20:33:46Z</time>
      </trkpt>
      <trkpt lat="44.425" lon="1.07147">
        <ele>259</ele>
        <time>2021-01-20T20:34:41Z</time>
      </trkpt>
      <trkpt lat="44.42493" lon="1.07029">
        <ele>263</ele>
        <time>2021-01-20T20:35:49Z</time>
      </trkpt>
      <trkpt lat="44.42604" lon="1.06929">
        <ele>263</ele>
        <time>2021-01-20T20:37:34Z</time>
      </trkpt>
      <trkpt lat="44.42712" lon="1.06826">
        <ele>266</ele>
        <time>2021-01-20T20:39:19Z</time>
      </trkpt>
      <trkpt lat="44.42781" lon="1.06726">
        <ele>265</ele>
        <time>2021-01-20T20:40:38Z</time>
      </trkpt>
      <trkpt lat="44.4287" lon="1.06519">
        <ele>256</ele>
        <time>2021-01-20T20:42:57Z</time>
      </trkpt>
      <trkpt lat="44.42955" lon="1.06377">
        <ele>253</ele>
        <time>2021-01-20T20:44:43Z</time>
      </trkpt>
      <trkpt lat="44.43104" lon="1.06243">
        <ele>253</ele>
        <time>2021-01-20T20:47:04Z</time>
      </trkpt>
      <trkpt lat="44.42983" lon="1.06002">
        <ele>247</ele>
        <time>2021-01-20T20:49:53Z</time>
      </trkpt>
      <trkpt lat="44.42796" lon="1.05767">
        <ele>240</ele>
        <time>2021-01-20T20:53:14Z</time>
      </trkpt>
      <trkpt lat="44.42736" lon="1.05494">
        <ele>239</ele>
        <time>2021-01-20T20:55:57Z</time>
      </trkpt>
      <trkpt lat="44.42712" lon="1.05374">
        <ele>239</ele>
        <time>2021-01-20T20:57:09Z</time>
      </trkpt>
      <trkpt lat="44.42647" lon="1.0529">
        <ele>243</ele>
        <time>2021-01-20T20:58:19Z</time>
      </trkpt>
      <trkpt lat="44.42595" lon="1.05169">
        <ele>249</ele>
        <time>2021-01-20T20:59:40Z</time>
      </trkpt>
      <trkpt lat="44.4253" lon="1.05072">
        <ele>247</ele>
        <time>2021-01-20T21:00:56Z</time>
      </trkpt>
      <trkpt lat="44.4251" lon="1.05011">
        <ele>246</ele>
        <time>2021-01-20T21:01:35Z</time>
      </trkpt>
      <trkpt lat="44.4251" lon="1.04938">
        <ele>247</ele>
        <time>2021-01-20T21:02:16Z</time>
      </trkpt>
      <trkpt lat="44.42645" lon="1.04929">
        <ele>248</ele>
        <time>2021-01-20T21:04:05Z</time>
      </trkpt>
      <trkpt lat="44.42701" lon="1.04932">
        <ele>245</ele>
        <time>2021-01-20T21:04:49Z</time>
      </trkpt>
      <trkpt lat="44.42827" lon="1.0495">
        <ele>241</ele>
        <time>2021-01-20T21:06:31Z</time>
      </trkpt>
      <trkpt lat="44.42931" lon="1.04893">
        <ele>237</ele>
        <time>2021-01-20T21:08:00Z</time>
      </trkpt>
      <trkpt lat="44.43011" lon="1.0479">
        <ele>234</ele>
        <time>2021-01-20T21:09:27Z</time>
      </trkpt>
      <trkpt lat="44.43093" lon="1.04692">
        <ele>234</ele>
        <time>2021-01-20T21:10:54Z</time>
      </trkpt>
      <trkpt lat="44.43039" lon="1.04595">
        <ele>242</ele>
        <time>2021-01-20T21:12:04Z</time>
      </trkpt>
      <trkpt lat="44.43089" lon="1.04483">
        <ele>240</ele>
        <time>2021-01-20T21:13:19Z</time>
      </trkpt>
      <trkpt lat="44.431" lon="1.04413">
        <ele>240</ele>
        <time>2021-01-20T21:14:00Z</time>
      </trkpt>
      <trkpt lat="44.43165" lon="1.04343">
        <ele>238</ele>
        <time>2021-01-20T21:15:06Z</time>
      </trkpt>
      <trkpt lat="44.43278" lon="1.04243">
        <ele>232</ele>
        <time>2021-01-20T21:16:53Z</time>
      </trkpt>
      <trkpt lat="44.43306" lon="1.04171">
        <ele>227</ele>
        <time>2021-01-20T21:17:40Z</time>
      </trkpt>
      <trkpt lat="44.4341" lon="1.04101">
        <ele>224</ele>
        <time>2021-01-20T21:19:12Z</time>
      </trkpt>
      <trkpt lat="44.43525" lon="1.04237">
        <ele>232</ele>
        <time>2021-01-20T21:21:13Z</time>
      </trkpt>
      <trkpt lat="44.43687" lon="1.0435">
        <ele>235</ele>
        <time>2021-01-20T21:23:38Z</time>
      </trkpt>
      <trkpt lat="44.43908" lon="1.04395">
        <ele>221</ele>
        <time>2021-01-20T21:26:37Z</time>
      </trkpt>
      <trkpt lat="44.44127" lon="1.04395">
        <ele>218</ele>
        <time>2021-01-20T21:29:32Z</time>
      </trkpt>
      <trkpt lat="44.44309" lon="1.044">
        <ele>217</ele>
        <time>2021-01-20T21:31:58Z</time>
      </trkpt>
      <trkpt lat="44.44426" lon="1.04459">
        <ele>220</ele>
        <time>2021-01-20T21:33:37Z</time>
      </trkpt>
      <trkpt lat="44.44692" lon="1.04398">
        <ele>219</ele>
        <time>2021-01-20T21:37:13Z</time>
      </trkpt>
      <trkpt lat="44.44985" lon="1.04362">
        <ele>210</ele>
        <time>2021-01-20T21:41:09Z</time>
      </trkpt>
      <trkpt lat="44.45091" lon="1.04337">
        <ele>210</ele>
        <time>2021-01-20T21:42:35Z</time>
      </trkpt>
      <trkpt lat="44.45223" lon="1.04398">
        <ele>206</ele>
        <time>2021-01-20T21:44:26Z</time>
      </trkpt>
      <trkpt lat="44.45139" lon="1.04607">
        <ele>209</ele>
        <time>2021-01-20T21:46:43Z</time>
      </trkpt>
      <trkpt lat="44.45141" lon="1.04796">
        <ele>209</ele>
        <time>2021-01-20T21:48:31Z</time>
      </trkpt>
      <trkpt lat="44.45201" lon="1.04768">
        <ele>211</ele>
        <time>2021-01-20T21:49:22Z</time>
      </trkpt>
      <trkpt lat="44.45262" lon="1.04756">
        <ele>211</ele>
        <time>2021-01-20T21:50:11Z</time>
      </trkpt>
      <trkpt lat="44.45273" lon="1.04811">
        <ele>212</ele>
        <time>2021-01-20T21:50:44Z</time>
      </trkpt>
      <trkpt lat="44.45297" lon="1.04865">
        <ele>212</ele>
        <time>2021-01-20T21:51:20Z</time>
      </trkpt>
      <trkpt lat="44.45282" lon="1.04911">
        <ele>212</ele>
        <time>2021-01-20T21:51:49Z</time>
      </trkpt>
      <trkpt lat="44.45266" lon="1.04944">
        <ele>213</ele>
        <time>2021-01-20T21:52:12Z</time>
      </trkpt>
      <trkpt lat="44.45217" lon="1.05051">
        <ele>213</ele>
        <time>2021-01-20T21:53:24Z</time>
      </trkpt>
      <trkpt lat="44.45167" lon="1.05184">
        <ele>209</ele>
        <time>2021-01-20T21:54:50Z</time>
      </trkpt>
      <trkpt lat="44.45132" lon="1.05281">
        <ele>207</ele>
        <time>2021-01-20T21:55:52Z</time>
      </trkpt>
      <trkpt lat="44.45104" lon="1.0536">
        <ele>206</ele>
        <time>2021-01-20T21:56:43Z</time>
      </trkpt>
      <trkpt lat="44.45063" lon="1.05396">
        <ele>205</ele>
        <time>2021-01-20T21:57:22Z</time>
      </trkpt>
      <trkpt lat="44.45015" lon="1.05415">
        <ele>204</ele>
        <time>2021-01-20T21:58:02Z</time>
      </trkpt>
      <trkpt lat="44.44961" lon="1.05442">
        <ele>205</ele>
        <time>2021-01-20T21:58:47Z</time>
      </trkpt>
      <trkpt lat="44.44954" lon="1.05588">
        <ele>212</ele>
        <time>2021-01-20T22:00:11Z</time>
      </trkpt>
      <trkpt lat="44.44985" lon="1.05752">
        <ele>208</ele>
        <time>2021-01-20T22:01:48Z</time>
      </trkpt>
      <trkpt lat="44.45006" lon="1.05852">
        <ele>207</ele>
        <time>2021-01-20T22:02:48Z</time>
      </trkpt>
      <trkpt lat="44.45011" lon="1.05897">
        <ele>206</ele>
        <time>2021-01-20T22:03:14Z</time>
      </trkpt>
      <trkpt lat="44.45043" lon="1.0611">
        <ele>214</ele>
        <time>2021-01-20T22:05:18Z</time>
      </trkpt>
      <trkpt lat="44.45145" lon="1.06343">
        <ele>213</ele>
        <time>2021-01-20T22:07:54Z</time>
      </trkpt>
      <trkpt lat="44.44941" lon="1.06704">
        <ele>219</ele>
        <time>2021-01-20T22:12:17Z</time>
      </trkpt>
      <trkpt lat="44.44818" lon="1.06601">
        <ele>224</ele>
        <time>2021-01-20T22:14:12Z</time>
      </trkpt>
      <trkpt lat="44.44781" lon="1.06782">
        <ele>228</ele>
        <time>2021-01-20T22:16:00Z</time>
      </trkpt>
      <trkpt lat="44.44686" lon="1.06926">
        <ele>227</ele>
        <time>2021-01-20T22:17:52Z</time>
      </trkpt>
      <trkpt lat="44.44569" lon="1.0729">
        <ele>239</ele>
        <time>2021-01-20T22:21:40Z</time>
      </trkpt>
      <trkpt lat="44.44614" lon="1.07442">
        <ele>240</ele>
        <time>2021-01-20T22:23:14Z</time>
      </trkpt>
      <trkpt lat="44.44523" lon="1.0746">
        <ele>239</ele>
        <time>2021-01-20T22:24:28Z</time>
      </trkpt>
      <trkpt lat="44.44471" lon="1.07457">
        <ele>241</ele>
        <time>2021-01-20T22:25:09Z</time>
      </trkpt>
      <trkpt lat="44.44398" lon="1.07472">
        <ele>245</ele>
        <time>2021-01-20T22:26:08Z</time>
      </trkpt>
      <trkpt lat="44.44307" lon="1.07484">
        <ele>250</ele>
        <time>2021-01-20T22:27:22Z</time>
      </trkpt>
      <trkpt lat="44.44246" lon="1.07484">
        <ele>252</ele>
        <time>2021-01-20T22:28:10Z</time>
      </trkpt>
      <trkpt lat="44.44216" lon="1.0749">
        <ele>250</ele>
        <time>2021-01-20T22:28:35Z</time>
      </trkpt>
      <trkpt lat="44.44185" lon="1.07545">
        <ele>248</ele>
        <time>2021-01-20T22:29:15Z</time>
      </trkpt>
      <trkpt lat="44.44164" lon="1.07557">
        <ele>247</ele>
        <time>2021-01-20T22:29:33Z</time>
      </trkpt>
      <trkpt lat="44.44123" lon="1.07572">
        <ele>244</ele>
        <time>2021-01-20T22:30:07Z</time>
      </trkpt>
      <trkpt lat="44.44101" lon="1.07621">
        <ele>240</ele>
        <time>2021-01-20T22:30:40Z</time>
      </trkpt>
      <trkpt lat="44.44051" lon="1.07712">
        <ele>236</ele>
        <time>2021-01-20T22:31:46Z</time>
      </trkpt>
      <trkpt lat="44.44027" lon="1.0776">
        <ele>236</ele>
        <time>2021-01-20T22:32:19Z</time>
      </trkpt>
      <trkpt lat="44.43997" lon="1.07803">
        <ele>235</ele>
        <time>2021-01-20T22:32:53Z</time>
      </trkpt>
      <trkpt lat="44.43982" lon="1.07827">
        <ele>236</ele>
        <time>2021-01-20T22:33:12Z</time>
      </trkpt>
      <trkpt lat="44.44023" lon="1.07867">
        <ele>234</ele>
        <time>2021-01-20T22:33:52Z</time>
      </trkpt>
      <trkpt lat="44.44051" lon="1.07912">
        <ele>232</ele>
        <time>2021-01-20T22:34:26Z</time>
      </trkpt>
      <trkpt lat="44.4404" lon="1.07946">
        <ele>233</ele>
        <time>2021-01-20T22:34:47Z</time>
      </trkpt>
      <trkpt lat="44.44027" lon="1.07994">
        <ele>234</ele>
        <time>2021-01-20T22:35:17Z</time>
      </trkpt>
      <trkpt lat="44.44006" lon="1.08061">
        <ele>239</ele>
        <time>2021-01-20T22:35:58Z</time>
      </trkpt>
      <trkpt lat="44.43984" lon="1.08106">
        <ele>242</ele>
        <time>2021-01-20T22:36:30Z</time>
      </trkpt>
      <trkpt lat="44.43975" lon="1.08194">
        <ele>243</ele>
        <time>2021-01-20T22:37:20Z</time>
      </trkpt>
      <trkpt lat="44.43956" lon="1.0827">
        <ele>241</ele>
        <time>2021-01-20T22:38:06Z</time>
      </trkpt>
      <trkpt lat="44.43934" lon="1.08328">
        <ele>239</ele>
        <time>2021-01-20T22:38:44Z</time>
      </trkpt>
      <trkpt lat="44.43919" lon="1.08358">
        <ele>237</ele>
        <time>2021-01-20T22:39:05Z</time>
      </trkpt>
      <trkpt lat="44.43884" lon="1.08398">
        <ele>233</ele>
        <time>2021-01-20T22:39:41Z</time>
      </trkpt>
      <trkpt lat="44.43858" lon="1.08434">
        <ele>232</ele>
        <time>2021-01-20T22:40:10Z</time>
      </trkpt>
      <trkpt lat="44.4385" lon="1.08495">
        <ele>231</ele>
        <time>2021-01-20T22:40:46Z</time>
      </trkpt>
      <trkpt lat="44.43941" lon="1.08486">
        <ele>230</ele>
        <time>2021-01-20T22:41:59Z</time>
      </trkpt>
      <trkpt lat="44.44021" lon="1.08501">
        <ele>229</ele>
        <time>2021-01-20T22:43:03Z</time>
      </trkpt>
      <trkpt lat="44.44105" lon="1.08562">
        <ele>229</ele>
        <time>2021-01-20T22:44:19Z</time>
      </trkpt>
      <trkpt lat="44.44214" lon="1.08631">
        <ele>229</ele>
        <time>2021-01-20T22:45:55Z</time>
      </trkpt>
      <trkpt lat="44.44413" lon="1.08668">
        <ele>221</ele>
        <time>2021-01-20T22:48:36Z</time>
      </trkpt>
      <trkpt lat="44.44474" lon="1.08689">
        <ele>223</ele>
        <time>2021-01-20T22:49:26Z</time>
      </trkpt>
      <trkpt lat="44.44536" lon="1.08768">
        <ele>228</ele>
        <time>2021-01-20T22:50:33Z</time>
      </trkpt>
      <trkpt lat="44.44571" lon="1.08883">
        <ele>232</ele>
        <time>2021-01-20T22:51:45Z</time>
      </trkpt>
      <trkpt lat="44.44569" lon="1.08995">
        <ele>236</ele>
        <time>2021-01-20T22:52:49Z</time>
      </trkpt>
      <trkpt lat="44.44569" lon="1.09035">
        <ele>237</ele>
        <time>2021-01-20T22:53:11Z</time>
      </trkpt>
      <trkpt lat="44.44575" lon="1.09178">
        <ele>235</ele>
        <time>2021-01-20T22:54:33Z</time>
      </trkpt>
      <trkpt lat="44.44549" lon="1.09253">
        <ele>233</ele>
        <time>2021-01-20T22:55:21Z</time>
      </trkpt>
      <trkpt lat="44.4453" lon="1.09335">
        <ele>229</ele>
        <time>2021-01-20T22:56:10Z</time>
      </trkpt>
      <trkpt lat="44.445" lon="1.09411">
        <ele>229</ele>
        <time>2021-01-20T22:57:00Z</time>
      </trkpt>
      <trkpt lat="44.44487" lon="1.09451">
        <ele>231</ele>
        <time>2021-01-20T22:57:25Z</time>
      </trkpt>
      <trkpt lat="44.44456" lon="1.09457">
        <ele>232</ele>
        <time>2021-01-20T22:57:50Z</time>
      </trkpt>
      <trkpt lat="44.44406" lon="1.0949">
        <ele>233</ele>
        <time>2021-01-20T22:58:34Z</time>
      </trkpt>
      <trkpt lat="44.44363" lon="1.09554">
        <ele>235</ele>
        <time>2021-01-20T22:59:25Z</time>
      </trkpt>
      <trkpt lat="44.44309" lon="1.09608">
        <ele>236</ele>
        <time>2021-01-20T23:00:18Z</time>
      </trkpt>
      <trkpt lat="44.44268" lon="1.0966">
        <ele>237</ele>
        <time>2021-01-20T23:01:02Z</time>
      </trkpt>
      <trkpt lat="44.44207" lon="1.09721">
        <ele>238</ele>
        <time>2021-01-20T23:02:02Z</time>
      </trkpt>
      <trkpt lat="44.44162" lon="1.09748">
        <ele>238</ele>
        <time>2021-01-20T23:02:41Z</time>
      </trkpt>
      <trkpt lat="44.44129" lon="1.09784">
        <ele>241</ele>
        <time>2021-01-20T23:03:15Z</time>
      </trkpt>
      <trkpt lat="44.44114" lon="1.09836">
        <ele>243</ele>
        <time>2021-01-20T23:03:47Z</time>
      </trkpt>
      <trkpt lat="44.44077" lon="1.09906">
        <ele>243</ele>
        <time>2021-01-20T23:04:37Z</time>
      </trkpt>
      <trkpt lat="44.4404" lon="1.09942">
        <ele>245</ele>
        <time>2021-01-20T23:05:13Z</time>
      </trkpt>
      <trkpt lat="44.44006" lon="1.10061">
        <ele>247</ele>
        <time>2021-01-20T23:06:26Z</time>
      </trkpt>
      <trkpt lat="44.43973" lon="1.10106">
        <ele>249</ele>
        <time>2021-01-20T23:07:03Z</time>
      </trkpt>
      <trkpt lat="44.43928" lon="1.10155">
        <ele>249</ele>
        <time>2021-01-20T23:07:48Z</time>
      </trkpt>
      <trkpt lat="44.43876" lon="1.10197">
        <ele>248</ele>
        <time>2021-01-20T23:08:36Z</time>
      </trkpt>
      <trkpt lat="44.43821" lon="1.10258">
        <ele>249</ele>
        <time>2021-01-20T23:09:33Z</time>
      </trkpt>
      <trkpt lat="44.43754" lon="1.10346">
        <ele>251</ele>
        <time>2021-01-20T23:10:46Z</time>
      </trkpt>
      <trkpt lat="44.43683" lon="1.10367">
        <ele>253</ele>
        <time>2021-01-20T23:11:44Z</time>
      </trkpt>
      <trkpt lat="44.43629" lon="1.10416">
        <ele>256</ele>
        <time>2021-01-20T23:12:36Z</time>
      </trkpt>
      <trkpt lat="44.43579" lon="1.10449">
        <ele>257</ele>
        <time>2021-01-20T23:13:20Z</time>
      </trkpt>
      <trkpt lat="44.43542" lon="1.10446">
        <ele>256</ele>
        <time>2021-01-20T23:13:50Z</time>
      </trkpt>
      <trkpt lat="44.43505" lon="1.10482">
        <ele>255</ele>
        <time>2021-01-20T23:14:26Z</time>
      </trkpt>
      <trkpt lat="44.43457" lon="1.10534">
        <ele>254</ele>
        <time>2021-01-20T23:15:14Z</time>
      </trkpt>
      <trkpt lat="44.43425" lon="1.10583">
        <ele>254</ele>
        <time>2021-01-20T23:15:52Z</time>
      </trkpt>
      <trkpt lat="44.43386" lon="1.10625">
        <ele>251</ele>
        <time>2021-01-20T23:16:32Z</time>
      </trkpt>
      <trkpt lat="44.43384" lon="1.10671">
        <ele>247</ele>
        <time>2021-01-20T23:16:58Z</time>
      </trkpt>
      <trkpt lat="44.43358" lon="1.1071">
        <ele>236</ele>
        <time>2021-01-20T23:17:29Z</time>
      </trkpt>
      <trkpt lat="44.43364" lon="1.10743">
        <ele>229</ele>
        <time>2021-01-20T23:17:48Z</time>
      </trkpt>
      <trkpt lat="44.4341" lon="1.10801">
        <ele>224</ele>
        <time>2021-01-20T23:18:38Z</time>
      </trkpt>
      <trkpt lat="44.43447" lon="1.10865">
        <ele>223</ele>
        <time>2021-01-20T23:19:25Z</time>
      </trkpt>
      <trkpt lat="44.43473" lon="1.10925">
        <ele>226</ele>
        <time>2021-01-20T23:20:05Z</time>
      </trkpt>
      <trkpt lat="44.43481" lon="1.1098">
        <ele>223</ele>
        <time>2021-01-20T23:20:37Z</time>
      </trkpt>
      <trkpt lat="44.43431" lon="1.11029">
        <ele>213</ele>
        <time>2021-01-20T23:21:26Z</time>
      </trkpt>
      <trkpt lat="44.43425" lon="1.11101">
        <ele>207</ele>
        <time>2021-01-20T23:22:07Z</time>
      </trkpt>
      <trkpt lat="44.43421" lon="1.1118">
        <ele>199</ele>
        <time>2021-01-20T23:22:53Z</time>
      </trkpt>
      <trkpt lat="44.43466" lon="1.11317">
        <ele>192</ele>
        <time>2021-01-20T23:24:19Z</time>
      </trkpt>
      <trkpt lat="44.43488" lon="1.11399">
        <ele>186</ele>
        <time>2021-01-20T23:25:09Z</time>
      </trkpt>
      <trkpt lat="44.43509" lon="1.11463">
        <ele>183</ele>
        <time>2021-01-20T23:25:49Z</time>
      </trkpt>
      <trkpt lat="44.43583" lon="1.1149">
        <ele>189</ele>
        <time>2021-01-20T23:26:50Z</time>
      </trkpt>
      <trkpt lat="44.43574" lon="1.11599">
        <ele>188</ele>
        <time>2021-01-20T23:27:53Z</time>
      </trkpt>
      <trkpt lat="44.4359" lon="1.11675">
        <ele>189</ele>
        <time>2021-01-20T23:28:38Z</time>
      </trkpt>
      <trkpt lat="44.43568" lon="1.11745">
        <ele>184</ele>
        <time>2021-01-20T23:29:22Z</time>
      </trkpt>
      <trkpt lat="44.43566" lon="1.11833">
        <ele>181</ele>
        <time>2021-01-20T23:30:12Z</time>
      </trkpt>
      <trkpt lat="44.43548" lon="1.11924">
        <ele>176</ele>
        <time>2021-01-20T23:31:06Z</time>
      </trkpt>
      <trkpt lat="44.43548" lon="1.12018">
        <ele>173</ele>
        <time>2021-01-20T23:32:00Z</time>
      </trkpt>
      <trkpt lat="44.43531" lon="1.12091">
        <ele>169</ele>
        <time>2021-01-20T23:32:44Z</time>
      </trkpt>
      <trkpt lat="44.4349" lon="1.12121">
        <ele>169</ele>
        <time>2021-01-20T23:33:21Z</time>
      </trkpt>
      <trkpt lat="44.43451" lon="1.12203">
        <ele>168</ele>
        <time>2021-01-20T23:34:17Z</time>
      </trkpt>
      <trkpt lat="44.43423" lon="1.12324">
        <ele>166</ele>
        <time>2021-01-20T23:35:30Z</time>
      </trkpt>
      <trkpt lat="44.43423" lon="1.1244">
        <ele>167</ele>
        <time>2021-01-20T23:36:36Z</time>
      </trkpt>
      <trkpt lat="44.43414" lon="1.12582">
        <ele>165</ele>
        <time>2021-01-20T23:37:58Z</time>
      </trkpt>
      <trkpt lat="44.4341" lon="1.12646">
        <ele>163</ele>
        <time>2021-01-20T23:38:35Z</time>
      </trkpt>
      <trkpt lat="44.43405" lon="1.12731">
        <ele>161</ele>
        <time>2021-01-20T23:39:23Z</time>
      </trkpt>
      <trkpt lat="44.43408" lon="1.12868">
        <ele>163</ele>
        <time>2021-01-20T23:40:42Z</time>
      </trkpt>
      <trkpt lat="44.43408" lon="1.12977">
        <ele>161</ele>
        <time>2021-01-20T23:41:44Z</time>
      </trkpt>
      <trkpt lat="44.43403" lon="1.13053">
        <ele>156</ele>
        <time>2021-01-20T23:42:28Z</time>
      </trkpt>
      <trkpt lat="44.43345" lon="1.13116">
        <ele>147</ele>
        <time>2021-01-20T23:43:27Z</time>
      </trkpt>
      <trkpt lat="44.43388" lon="1.13177">
        <ele>144</ele>
        <time>2021-01-20T23:44:16Z</time>
      </trkpt>
      <trkpt lat="44.4344" lon="1.13277">
        <ele>139</ele>
        <time>2021-01-20T23:45:26Z</time>
      </trkpt>
      <trkpt lat="44.43501" lon="1.13302">
        <ele>136</ele>
        <time>2021-01-20T23:46:17Z</time>
      </trkpt>
      <trkpt lat="44.43525" lon="1.13368">
        <ele>131</ele>
        <time>2021-01-20T23:47:00Z</time>
      </trkpt>
      <trkpt lat="44.43505" lon="1.13435">
        <ele>130</ele>
        <time>2021-01-20T23:47:41Z</time>
      </trkpt>
      <trkpt lat="44.43486" lon="1.13456">
        <ele>131</ele>
        <time>2021-01-20T23:48:00Z</time>
      </trkpt>
      <trkpt lat="44.43444" lon="1.13444">
        <ele>133</ele>
        <time>2021-01-20T23:48:35Z</time>
      </trkpt>
      <trkpt lat="44.43418" lon="1.13468">
        <ele>134</ele>
        <time>2021-01-20T23:49:00Z</time>
      </trkpt>
      <trkpt lat="44.43384" lon="1.13505">
        <ele>135</ele>
        <time>2021-01-20T23:49:34Z</time>
      </trkpt>
      <trkpt lat="44.43321" lon="1.13529">
        <ele>137</ele>
        <time>2021-01-20T23:50:26Z</time>
      </trkpt>
      <trkpt lat="44.43256" lon="1.13556">
        <ele>139</ele>
        <time>2021-01-20T23:51:21Z</time>
      </trkpt>
      <trkpt lat="44.4318" lon="1.13608">
        <ele>141</ele>
        <time>2021-01-20T23:52:28Z</time>
      </trkpt>
      <trkpt lat="44.43117" lon="1.13711">
        <ele>138</ele>
        <time>2021-01-20T23:53:46Z</time>
      </trkpt>
      <trkpt lat="44.43024" lon="1.13763">
        <ele>143</ele>
        <time>2021-01-20T23:55:06Z</time>
      </trkpt>
      <trkpt lat="44.42924" lon="1.13857">
        <ele>142</ele>
        <time>2021-01-20T23:56:43Z</time>
      </trkpt>
      <trkpt lat="44.4284" lon="1.13963">
        <ele>142</ele>
        <time>2021-01-20T23:58:13Z</time>
      </trkpt>
      <trkpt lat="44.4279" lon="1.14048">
        <ele>142</ele>
        <time>2021-01-20T23:59:16Z</time>
      </trkpt>
      <trkpt lat="44.42662" lon="1.14097">
        <ele>145</ele>
        <time>2021-01-21T00:01:02Z</time>
      </trkpt>
      <trkpt lat="44.42528" lon="1.14121">
        <ele>150</ele>
        <time>2021-01-21T00:02:51Z</time>
      </trkpt>
      <trkpt lat="44.42391" lon="1.14115">
        <ele>155</ele>
        <time>2021-01-21T00:04:40Z</time>
      </trkpt>
      <trkpt lat="44.42318" lon="1.14151">
        <ele>154</ele>
        <time>2021-01-21T00:05:42Z</time>
      </trkpt>
      <trkpt lat="44.42257" lon="1.14203">
        <ele>150</ele>
        <time>2021-01-21T00:06:39Z</time>
      </trkpt>
      <trkpt lat="44.42246" lon="1.14294">
        <ele>146</ele>
        <time>2021-01-21T00:07:32Z</time>
      </trkpt>
      <trkpt lat="44.42179" lon="1.14333">
        <ele>147</ele>
        <time>2021-01-21T00:08:30Z</time>
      </trkpt>
      <trkpt lat="44.42122" lon="1.1437">
        <ele>147</ele>
        <time>2021-01-21T00:09:21Z</time>
      </trkpt>
      <trkpt lat="44.42053" lon="1.1437">
        <ele>149</ele>
        <time>2021-01-21T00:10:16Z</time>
      </trkpt>
      <trkpt lat="44.42012" lon="1.14358">
        <ele>150</ele>
        <time>2021-01-21T00:10:49Z</time>
      </trkpt>
      <trkpt lat="44.41971" lon="1.14373">
        <ele>150</ele>
        <time>2021-01-21T00:11:23Z</time>
      </trkpt>
      <trkpt lat="44.4194" lon="1.14412">
        <ele>150</ele>
        <time>2021-01-21T00:11:57Z</time>
      </trkpt>
      <trkpt lat="44.41932" lon="1.1457">
        <ele>151</ele>
        <time>2021-01-21T00:13:27Z</time>
      </trkpt>
      <trkpt lat="44.41932" lon="1.14646">
        <ele>151</ele>
        <time>2021-01-21T00:14:11Z</time>
      </trkpt>
      <trkpt lat="44.41964" lon="1.14807">
        <ele>154</ele>
        <time>2021-01-21T00:15:46Z</time>
      </trkpt>
      <trkpt lat="44.41956" lon="1.14876">
        <ele>154</ele>
        <time>2021-01-21T00:16:26Z</time>
      </trkpt>
      <trkpt lat="44.41949" lon="1.14958">
        <ele>154</ele>
        <time>2021-01-21T00:17:13Z</time>
      </trkpt>
      <trkpt lat="44.41904" lon="1.15156">
        <ele>156</ele>
        <time>2021-01-21T00:19:12Z</time>
      </trkpt>
      <trkpt lat="44.41882" lon="1.15265">
        <ele>157</ele>
        <time>2021-01-21T00:20:17Z</time>
      </trkpt>
      <trkpt lat="44.41867" lon="1.15398">
        <ele>160</ele>
        <time>2021-01-21T00:21:34Z</time>
      </trkpt>
      <trkpt lat="44.41852" lon="1.15571">
        <ele>156</ele>
        <time>2021-01-21T00:23:14Z</time>
      </trkpt>
      <trkpt lat="44.41823" lon="1.15699">
        <ele>160</ele>
        <time>2021-01-21T00:24:31Z</time>
      </trkpt>
      <trkpt lat="44.41804" lon="1.15787">
        <ele>164</ele>
        <time>2021-01-21T00:25:23Z</time>
      </trkpt>
      <trkpt lat="44.4178" lon="1.15869">
        <ele>167</ele>
        <time>2021-01-21T00:26:14Z</time>
      </trkpt>
      <trkpt lat="44.41761" lon="1.15893">
        <ele>169</ele>
        <time>2021-01-21T00:26:34Z</time>
      </trkpt>
      <trkpt lat="44.41739" lon="1.15893">
        <ele>170</ele>
        <time>2021-01-21T00:26:52Z</time>
      </trkpt>
      <trkpt lat="44.41739" lon="1.15893">
        <ele>170</ele>
        <time>2021-01-21T00:26:52Z</time>
      </trkpt>
    </trkseg>
  </trk>
</gpx>